Main page
METAR-TAF:

METAR-TAF

Airports :

Baia Mare, Romania

Baia Mare Airport

latitude: 47-40N, longitude: 023-35E, elevation: 218 m

Current weather observation

The report was made 26 minutes ago, at 23:00 UTC
Wind 10 kt from the East
Temperature 19°C
Humidity 68%
Pressure 1019 hPa
Visibility 10 km or more

METAR: LRBM 172300Z AUTO 08010KT 9999 FEW022/// SCT220/// 19/13 Q1019

Time: 02:26 (23:26 UTC)

Forecast

The report was made 9 hours and 26 minutes ago, at 14:00 UTC
Forecast valid from 17 at 15 UTC to 17 at 24 UTC
Wind 4 kt from variable directions
Visibility 10 km or more
no clouds below 1500 m and no cumulonimbus
Temporary
from 17 at 15 UTC to 17 at 17 UTC
Scattered clouds at a height of 4000 ft, Cumulonimbus.
Probability 30% :
Temporary
from 17 at 15 UTC to 17 at 17 UTC
Visibility: 5000 m
thunderstorm, rain

TAF: LRBM 171400Z 1715/1724 VRB04KT CAVOK TEMPO 1715/1717 SCT040CB PROB30 TEMPO 1715/1717 5000 TSRA

Weather observations and forecasts of more than 4000 airports (METAR and TAF reports).

The available stations are represented by yellow and red dots on the map.

Hover mouse over dot to see the name of the station.

Then click to see weather observations and forecasts.

To change the map : click on the green buttons with a black cross to zoom in, on the green button with a dash to zoom out, or on the green arrows for adjacent maps.


METAR-TAF: